Time;durP1;ratioP1;P1;durP2;ratioP2;P2;SDS_P1;SDS_P2;PMS_P1;PMS_P2;Temp;Humidity;BMP_temperature;BMP_pressure;BME280_temperature;BME280_humidity;BME280_pressure;Samples;Min_cycle;Max_cycle;Signal;HPM_P1;HPM_P2
2021/09/18 00:00:00;;;;;;;;;;;18.60;99.90;;;;;;4957921;29;20023;-78
2021/09/18 00:02:26;;;;;;;6.18;2.03;;;18.70;99.90;;;;;;4957982;29;19913;-78
2021/09/18 00:04:51;;;;;;;;;;;18.60;99.90;;;;;;4957989;29;20027;-78
2021/09/18 00:07:17;;;;;;;6.65;2.55;;;18.60;99.90;;;;;;4940210;29;19957;-78
2021/09/18 00:09:43;;;;;;;;;;;18.40;99.90;;;;;;4957869;29;20055;-78
2021/09/18 00:12:09;;;;;;;7.15;2.85;;;18.30;99.90;;;;;;4957350;29;20009;-78
2021/09/18 00:14:39;;;;;;;;;;;18.40;99.90;;;;;;4940445;29;20028;-78
2021/09/18 00:17:06;;;;;;;6.18;2.53;;;18.50;99.90;;;;;;4940053;29;19914;-78
2021/09/18 00:19:32;;;;;;;6.18;2.35;;;18.40;99.90;;;;;;4957220;29;20030;-78
2021/09/18 00:21:58;;;;;;;5.53;2.50;;;18.20;99.90;;;;;;4957298;29;20487;-78
2021/09/18 00:24:23;;;;;;;;;;;18.30;99.90;;;;;;4957513;29;20123;-78
2021/09/18 00:26:49;;;;;;;5.55;2.67;;;18.40;99.90;;;;;;4957140;29;19907;-78
2021/09/18 00:29:16;;;;;;;;;;;18.40;99.90;;;;;;4957252;28;20027;-78
2021/09/18 00:31:42;;;;;;;7.25;2.65;;;18.40;99.90;;;;;;4957019;29;20342;-78
2021/09/18 00:34:08;;;;;;;5.18;2.50;;;18.50;99.90;;;;;;4956934;29;20027;-78
2021/09/18 00:36:33;;;;;;;;;;;18.40;99.90;;;;;;4957327;29;20050;-78
2021/09/18 00:38:59;;;;;;;5.50;2.50;;;18.50;99.90;;;;;;4957039;29;19938;-78
2021/09/18 00:41:25;;;;;;;;;;;18.30;99.90;;;;;;4957244;29;20046;-78
2021/09/18 00:43:53;;;;;;;7.28;3.00;;;18.30;99.90;;;;;;4956753;29;19917;-78
2021/09/18 00:46:19;;;;;;;7.38;2.90;;;18.10;99.90;;;;;;4956726;29;20035;-78
2021/09/18 00:48:45;;;;;;;;;;;18.20;99.90;;;;;;4939831;29;20028;-78
2021/09/18 00:51:11;;;;;;;6.28;2.90;;;18.30;99.90;;;;;;4939497;29;20022;-78
2021/09/18 00:53:37;;;;;;;;;;;18.40;99.90;;;;;;4955723;29;20118;-78
2021/09/18 00:56:03;;;;;;;5.80;2.88;;;18.50;99.90;;;;;;4956601;29;20001;-78
2021/09/18 00:58:29;;;;;;;6.90;2.95;;;18.50;99.90;;;;;;4956494;29;20046;-78
2021/09/18 01:00:54;;;;;;;;;;;18.50;99.90;;;;;;4955596;29;20023;-78
2021/09/18 01:03:20;;;;;;;7.95;3.00;;;18.50;99.90;;;;;;4956453;29;19910;-78
2021/09/18 01:05:46;;;;;;;;;;;18.30;99.90;;;;;;4957186;29;20029;-78
2021/09/18 01:08:11;;;;;;;6.45;2.75;;;18.30;99.90;;;;;;4956281;29;19941;-78
2021/09/18 01:10:37;;;;;;;;;;;18.50;99.90;;;;;;4956617;29;20027;-78
2021/09/18 01:13:17;;;;;;;4.88;2.78;;;18.40;99.90;;;;;;4938864;29;20013;-78
2021/09/18 01:15:44;;;;;;;7.40;2.63;;;18.20;99.90;;;;;;4938656;29;20041;-78
2021/09/18 01:18:10;;;;;;;6.90;2.55;;;18.30;99.90;;;;;;4938881;29;20110;-78
2021/09/18 01:20:39;;;;;;;8.75;3.28;;;18.40;99.90;;;;;;4938924;29;20652;-78
2021/09/18 01:23:06;;;;;;;7.85;3.17;;;18.30;99.90;;;;;;4956249;29;20034;-78
2021/09/18 01:25:35;;;;;;;7.65;3.10;;;18.20;99.90;;;;;;4955970;29;20032;-78
2021/09/18 01:28:02;;;;;;;9.63;2.90;;;18.20;99.90;;;;;;4955950;29;20399;-78
2021/09/18 01:30:30;;;;;;;7.13;2.97;;;18.20;99.90;;;;;;4938721;29;20055;-78
2021/09/18 01:32:57;;;;;;;7.13;2.58;;;18.20;99.90;;;;;;4955786;29;20031;-78
2021/09/18 01:35:24;;;;;;;5.75;2.50;;;18.20;99.90;;;;;;4938650;29;20404;-78
2021/09/18 01:37:50;;;;;;;7.53;2.92;;;18.20;99.90;;;;;;4938573;29;20019;-78
2021/09/18 01:40:28;;;;;;;6.32;2.72;;;18.20;99.90;;;;;;4955094;28;20042;-78
2021/09/18 01:42:55;;;;;;;7.35;2.90;;;18.20;99.90;;;;;;4938239;29;20627;-78
2021/09/18 01:45:21;;;;;;;8.45;2.95;;;18.20;99.90;;;;;;4955680;29;20062;-78
2021/09/18 01:47:51;;;;;;;;;;;18.20;99.90;;;;;;4954735;29;20023;-78
2021/09/18 01:50:59;;;;;;;8.55;2.92;;;18.20;99.90;;;;;;4955763;29;19906;-78
2021/09/18 01:53:25;;;;;;;6.68;3.00;;;18.20;99.90;;;;;;4953853;29;20407;-78
2021/09/18 01:55:52;;;;;;;6.72;2.80;;;18.10;99.90;;;;;;4955456;29;20023;-78
2021/09/18 01:58:19;;;;;;;6.45;3.00;;;18.00;99.90;;;;;;4955287;29;20419;-78
2021/09/18 02:00:48;;;;;;;6.63;2.70;;;18.00;99.90;;;;;;4938234;29;20023;-78
2021/09/18 02:03:14;;;;;;;9.05;2.70;;;18.00;99.90;;;;;;4938140;29;20041;-78
2021/09/18 02:05:40;;;;;;;;;;;18.20;99.90;;;;;;4955808;29;20027;-78
2021/09/18 02:08:06;;;;;;;7.53;2.88;;;18.20;99.90;;;;;;4955333;29;19914;-78
2021/09/18 02:10:32;;;;;;;;;;;18.20;99.90;;;;;;4955765;29;20039;-78
2021/09/18 02:13:02;;;;;;;9.38;2.67;;;18.20;99.90;;;;;;4955139;29;19954;-77
2021/09/18 02:15:28;;;;;;;5.88;2.58;;;18.20;99.90;;;;;;4938058;29;20027;-78
2021/09/18 02:17:54;;;;;;;5.70;2.70;;;18.20;99.90;;;;;;4955560;29;20057;-80
2021/09/18 02:20:24;;;;;;;6.10;2.50;;;18.10;99.90;;;;;;4955249;29;20022;-80
2021/09/18 02:22:50;;;;;;;6.50;2.83;;;18.10;99.90;;;;;;4955188;29;20027;-80
2021/09/18 02:25:17;;;;;;;5.85;2.60;;;18.20;99.90;;;;;;4937981;29;20105;-81
2021/09/18 02:27:44;;;;;;;6.32;2.60;;;18.30;99.90;;;;;;4955140;29;20372;-80
2021/09/18 02:30:13;;;;;;;6.63;2.78;;;18.10;99.90;;;;;;4937901;29;20050;-80
2021/09/18 02:32:39;;;;;;;7.45;2.53;;;18.10;99.90;;;;;;4955109;29;20063;-80
2021/09/18 02:35:06;;;;;;;;;;;18.10;99.90;;;;;;4955495;29;20027;-80
2021/09/18 02:37:32;;;;;;;7.55;2.63;;;17.90;99.90;;;;;;4955104;29;19910;-80
2021/09/18 02:39:58;;;;;;;6.45;3.00;;;17.90;99.90;;;;;;4955011;29;20020;-79
2021/09/18 02:42:23;;;;;;;;;;;17.80;99.90;;;;;;4955628;29;20024;-80
2021/09/18 02:44:49;;;;;;;6.75;2.60;;;17.90;99.90;;;;;;4955042;29;19906;-80
2021/09/18 02:47:15;;;;;;;;;;;17.70;99.90;;;;;;4955383;29;20030;-80
2021/09/18 02:49:41;;;;;;;7.68;2.85;;;17.80;99.90;;;;;;4955349;29;19969;-80
2021/09/18 02:52:06;;;;;;;;;;;17.80;99.90;;;;;;4958227;28;20387;-80
2021/09/18 02:54:32;;;;;;;7.97;2.70;;;17.90;99.90;;;;;;4958769;29;20359;-78
2021/09/18 02:56:58;;;;;;;;;;;17.90;99.90;;;;;;4958964;29;20027;-78
2021/09/18 02:59:23;;;;;;;6.43;2.47;;;17.90;99.90;;;;;;4958677;29;20338;-78
2021/09/18 03:01:49;;;;;;;;;;;17.90;99.90;;;;;;4957738;29;20031;-78
2021/09/18 03:04:15;;;;;;;7.30;2.70;;;17.90;99.90;;;;;;4958634;29;19907;-78
2021/09/18 03:06:40;;;;;;;;;;;17.90;99.90;;;;;;4959043;29;20146;-78
2021/09/18 03:09:06;;;;;;;8.20;2.78;;;17.90;99.90;;;;;;4958968;29;19913;-78
2021/09/18 03:11:32;;;;;;;;;;;17.90;99.90;;;;;;4957513;29;20048;-78
2021/09/18 03:13:57;;;;;;;5.30;2.70;;;17.90;99.90;;;;;;4958483;29;19906;-78
2021/09/18 03:16:23;;;;;;;;;;;17.90;99.90;;;;;;4958759;29;20038;-78
2021/09/18 03:18:49;;;;;;;6.88;2.45;;;17.80;99.90;;;;;;4958521;29;19907;-78
2021/09/18 03:21:14;;;;;;;;;;;17.70;99.90;;;;;;4958666;29;20046;-78
2021/09/18 03:23:40;;;;;;;6.90;2.80;;;17.80;99.90;;;;;;4940943;29;20279;-78
2021/09/18 03:26:06;;;;;;;;;;;17.90;99.90;;;;;;4958538;29;20032;-78
2021/09/18 03:28:32;;;;;;;6.43;2.50;;;17.90;99.90;;;;;;4958544;29;20371;-78
2021/09/18 03:30:58;;;;;;;6.78;2.40;;;17.90;99.90;;;;;;4958047;29;20016;-78
2021/09/18 03:33:23;;;;;;;;;;;18.00;99.90;;;;;;4958365;29;20042;-78
2021/09/18 03:35:51;;;;;;;7.18;2.90;;;18.00;99.90;;;;;;4958237;29;19996;-78
2021/09/18 03:38:17;;;;;;;5.57;2.60;;;17.90;99.90;;;;;;4940713;29;20020;-78
2021/09/18 03:40:43;;;;;;;7.65;2.83;;;17.90;99.90;;;;;;4940941;29;20031;-78
2021/09/18 03:43:09;;;;;;;8.20;2.90;;;18.00;99.90;;;;;;4958083;29;20063;-78
2021/09/18 03:45:35;;;;;;;;;;;18.10;99.90;;;;;;4958460;29;20031;-78
2021/09/18 03:48:01;;;;;;;6.80;2.60;;;18.10;99.90;;;;;;4958072;29;19973;-78
2021/09/18 03:50:26;;;;;;;;;;;18.10;99.90;;;;;;4958192;29;20102;-78
2021/09/18 03:52:52;;;;;;;8.02;2.88;;;18.10;99.90;;;;;;4957590;29;19958;-78
2021/09/18 03:55:18;;;;;;;;;;;18.00;99.90;;;;;;4956645;29;20031;-78
2021/09/18 03:57:43;;;;;;;8.05;2.90;;;18.00;99.90;;;;;;4957569;29;19930;-78
2021/09/18 04:00:09;;;;;;;;;;;18.00;99.90;;;;;;4957973;29;20514;-78
2021/09/18 04:02:35;;;;;;;7.93;2.92;;;18.00;99.90;;;;;;4956898;28;19937;-78
2021/09/18 04:05:01;;;;;;;;;;;17.90;99.90;;;;;;4957891;29;20035;-78
2021/09/18 04:07:26;;;;;;;7.03;2.63;;;18.00;99.90;;;;;;4957629;29;19930;-78
2021/09/18 04:09:52;;;;;;;;;;;18.00;99.90;;;;;;4957894;29;20086;-78
2021/09/18 04:12:18;;;;;;;8.20;2.92;;;18.00;99.90;;;;;;4957442;29;19961;-78
2021/09/18 04:14:43;;;;;;;;;;;17.90;99.90;;;;;;4940504;29;20031;-78
2021/09/18 04:17:09;;;;;;;6.97;2.95;;;17.90;99.90;;;;;;4957717;29;19954;-78
2021/09/18 04:19:35;;;;;;;;;;;17.90;99.90;;;;;;4957629;29;20449;-78
2021/09/18 04:22:01;;;;;;;7.43;2.90;;;17.80;99.90;;;;;;4957353;29;20346;-78
2021/09/18 04:24:27;;;;;;;6.03;3.00;;;17.80;99.90;;;;;;4957133;29;20020;-78
2021/09/18 04:26:53;;;;;;;;;;;17.90;99.90;;;;;;4956228;29;20387;-78
2021/09/18 04:29:19;;;;;;;6.38;2.90;;;17.80;99.90;;;;;;4957207;29;19953;-78
2021/09/18 04:31:44;;;;;;;;;;;17.90;99.90;;;;;;4957453;29;20035;-78
2021/09/18 04:34:10;;;;;;;7.50;3.20;;;17.90;99.90;;;;;;4956967;29;19933;-78
2021/09/18 04:36:36;;;;;;;;;;;17.90;99.90;;;;;;4957314;29;20023;-78
2021/09/18 04:39:03;;;;;;;7.65;3.75;;;17.90;99.90;;;;;;4956848;29;19906;-78
2021/09/18 04:41:29;;;;;;;10.52;3.60;;;17.80;99.90;;;;;;4956801;29;20070;-78
2021/09/18 04:43:55;;;;;;;;;;;17.80;99.90;;;;;;4957234;29;20396;-78
2021/09/18 04:46:22;;;;;;;7.18;3.38;;;17.80;99.90;;;;;;4939466;29;20421;-78
2021/09/18 04:48:48;;;;;;;7.05;3.53;;;17.80;99.90;;;;;;4956685;29;20102;-78
2021/09/18 04:51:13;;;;;;;;;;;17.80;99.90;;;;;;4957209;29;20147;-78
2021/09/18 04:53:40;;;;;;;9.57;3.70;;;17.70;99.90;;;;;;4956710;29;20398;-78
2021/09/18 04:56:05;;;;;;;7.40;3.50;;;17.80;99.90;;;;;;4956463;29;20480;-78
2021/09/18 04:58:31;;;;;;;;;;;17.70;99.90;;;;;;4956709;29;20051;-78
2021/09/18 05:00:57;;;;;;;11.32;4.18;;;17.70;99.90;;;;;;4956667;29;19910;-78
2021/09/18 05:03:22;;;;;;;;;;;17.80;99.90;;;;;;4956793;29;20484;-77
2021/09/18 05:05:48;;;;;;;8.57;3.30;;;17.70;99.90;;;;;;4939416;29;19942;-78
2021/09/18 05:08:14;;;;;;;;;;;17.70;99.90;;;;;;4956711;29;20032;-78
2021/09/18 05:10:40;;;;;;;8.13;3.70;;;17.60;99.90;;;;;;4956242;29;19953;-78
2021/09/18 05:13:06;;;;;;;;;;;17.60;99.90;;;;;;4939380;29;20480;-78
2021/09/18 05:15:32;;;;;;;9.98;3.97;;;17.70;99.90;;;;;;4956368;28;20390;-78
2021/09/18 05:17:57;;;;;;;;;;;17.60;99.90;;;;;;4955300;29;20015;-78
2021/09/18 05:20:23;;;;;;;8.95;3.80;;;17.60;99.90;;;;;;4956508;29;19937;-78
2021/09/18 05:22:49;;;;;;;;;;;17.70;99.90;;;;;;4939244;29;20126;-78
2021/09/18 05:25:15;;;;;;;9.20;4.20;;;17.60;99.90;;;;;;4956101;29;19910;-78
2021/09/18 05:27:40;;;;;;;;;;;17.60;99.90;;;;;;4956423;29;20020;-78
2021/09/18 05:30:07;;;;;;;8.45;4.03;;;17.70;99.90;;;;;;4955881;29;20026;-78
2021/09/18 05:32:33;;;;;;;11.13;4.35;;;17.60;99.90;;;;;;4955737;28;20554;-78
2021/09/18 05:34:59;;;;;;;;;;;17.60;99.90;;;;;;4956315;29;20373;-78
2021/09/18 05:37:25;;;;;;;8.38;4.00;;;17.60;99.90;;;;;;4938597;29;19913;-78
2021/09/18 05:39:50;;;;;;;;;;;17.60;99.90;;;;;;4956451;29;20082;-78
2021/09/18 05:42:17;;;;;;;9.32;4.55;;;17.60;99.90;;;;;;4955987;29;20323;-78
2021/09/18 05:44:42;;;;;;;10.20;4.53;;;17.60;99.90;;;;;;4938434;29;20443;-78
2021/09/18 05:47:08;;;;;;;;;;;17.60;99.90;;;;;;4956088;29;20035;-78
2021/09/18 05:49:34;;;;;;;10.32;4.13;;;17.50;99.90;;;;;;4955686;29;19954;-78
2021/09/18 05:52:00;;;;;;;;;;;17.50;99.90;;;;;;4955907;29;20023;-78
2021/09/18 05:54:27;;;;;;;8.75;4.25;;;17.60;99.90;;;;;;4955495;29;19906;-78
2021/09/18 05:56:56;;;;;;;8.07;4.10;;;17.60;99.90;;;;;;4955300;29;20392;-78
2021/09/18 05:59:22;;;;;;;7.28;3.70;;;17.60;99.90;;;;;;4938077;29;20038;-78
2021/09/18 06:01:48;;;;;;;9.05;4.25;;;17.60;99.90;;;;;;4955474;29;20066;-77
2021/09/18 06:04:13;;;;;;;;;;;17.60;99.90;;;;;;4938634;29;20028;-77
2021/09/18 06:06:39;;;;;;;9.63;4.20;;;17.60;99.90;;;;;;4955585;29;19993;-78
2021/09/18 06:09:05;;;;;;;;;;;17.70;99.90;;;;;;4955978;29;20395;-78
2021/09/18 06:11:31;;;;;;;9.18;4.22;;;17.60;99.90;;;;;;4938051;29;19950;-78
2021/09/18 06:13:56;;;;;;;;;;;17.60;99.90;;;;;;4955707;29;20020;-78
2021/09/18 06:16:22;;;;;;;7.78;3.97;;;17.70;99.90;;;;;;4955767;29;19913;-78
2021/09/18 06:18:48;;;;;;;;;;;17.80;99.90;;;;;;4955703;29;20032;-78
2021/09/18 06:21:14;;;;;;;9.23;4.00;;;17.70;99.90;;;;;;4955534;29;19953;-77
2021/09/18 06:23:40;;;;;;;;;;;17.70;99.90;;;;;;4955845;29;20063;-78
2021/09/18 06:26:07;;;;;;;9.48;3.90;;;17.80;99.90;;;;;;4954782;29;19907;-78
2021/09/18 06:28:33;;;;;;;9.80;4.15;;;17.80;99.90;;;;;;4955224;29;20031;-77
2021/09/18 06:31:00;;;;;;;12.52;6.07;;;17.70;99.90;;;;;;4938042;29;20027;-78
2021/09/18 06:33:26;;;;;;;10.10;4.72;;;17.70;99.90;;;;;;4955067;29;20069;-78
2021/09/18 06:35:52;;;;;;;8.52;4.40;;;17.80;99.90;;;;;;4955102;29;20055;-78
2021/09/18 06:38:21;;;;;;;;;;;17.80;99.90;;;;;;4955450;29;20023;-78
2021/09/18 06:40:52;;;;;;;9.88;4.13;;;17.80;99.90;;;;;;4937779;29;19958;-78
2021/09/18 06:43:19;;;;;;;7.85;3.80;;;17.90;99.90;;;;;;4955128;29;20030;-78
2021/09/18 06:45:45;;;;;;;9.82;4.20;;;18.00;99.90;;;;;;4937852;29;20027;-78
2021/09/18 06:48:10;;;;;;;;;;;17.90;99.90;;;;;;4954235;29;20050;-78
2021/09/18 06:50:38;;;;;;;9.32;4.47;;;17.90;99.90;;;;;;4954942;29;20282;-78
2021/09/18 06:53:05;;;;;;;8.52;4.20;;;17.90;99.90;;;;;;4937634;29;20035;-78
2021/09/18 06:55:31;;;;;;;12.10;4.13;;;18.00;99.90;;;;;;4955022;29;20023;-77
2021/09/18 06:57:56;;;;;;;8.38;4.47;;;18.00;99.90;;;;;;4954782;29;20051;-78
2021/09/18 07:00:22;;;;;;;;;;;18.00;99.90;;;;;;4955305;29;20023;-78
2021/09/18 07:02:48;;;;;;;8.30;4.30;;;18.10;99.90;;;;;;4954841;29;19915;-78
2021/09/18 07:05:14;;;;;;;;;;;18.10;99.90;;;;;;4955220;29;20035;-78
2021/09/18 07:07:40;;;;;;;10.13;4.35;;;18.20;99.90;;;;;;4954806;29;19906;-78
2021/09/18 07:10:06;;;;;;;;;;;18.10;99.90;;;;;;4955450;29;20038;-78
2021/09/18 07:12:31;;;;;;;10.32;4.57;;;18.20;99.90;;;;;;4954722;29;19949;-78
2021/09/18 07:14:57;;;;;;;;;;;18.30;99.90;;;;;;4955192;29;20110;-78
2021/09/18 07:17:23;;;;;;;8.20;3.90;;;18.30;99.90;;;;;;4954760;29;19910;-78
2021/09/18 07:19:48;;;;;;;;;;;18.30;99.90;;;;;;4955121;29;20050;-78
2021/09/18 07:22:14;;;;;;;9.68;4.00;;;18.30;99.90;;;;;;4954692;29;19913;-78
2021/09/18 07:24:40;;;;;;;;;;;18.40;99.90;;;;;;4937839;29;20451;-78
2021/09/18 07:27:05;;;;;;;9.55;4.22;;;18.50;99.90;;;;;;4955190;29;20367;-78
2021/09/18 07:29:31;;;;;;;;;;;18.40;99.90;;;;;;4954986;29;20065;-78
2021/09/18 07:31:58;;;;;;;9.95;4.40;;;18.40;99.90;;;;;;4954495;29;19910;-78
2021/09/18 07:34:24;;;;;;;10.93;4.45;;;18.40;99.90;;;;;;4954589;29;20027;-78
2021/09/18 07:36:50;;;;;;;10.27;4.15;;;18.40;99.90;;;;;;4954450;28;20439;-78
2021/09/18 07:39:15;;;;;;;10.98;4.22;;;18.50;99.90;;;;;;4940100;29;20498;-78
2021/09/18 07:41:41;;;;;;;;;;;18.50;99.90;;;;;;4958329;29;20035;-78
2021/09/18 07:44:07;;;;;;;8.98;4.13;;;18.50;99.90;;;;;;4957871;29;19956;-78
2021/09/18 07:46:33;;;;;;;8.15;3.88;;;18.40;99.90;;;;;;4958302;29;20031;-77
2021/09/18 07:49:00;;;;;;;10.88;4.38;;;18.40;99.90;;;;;;4956095;28;20030;-78
2021/09/18 07:51:27;;;;;;;10.52;4.22;;;18.20;99.90;;;;;;4940958;29;20034;-77
2021/09/18 07:53:53;;;;;;;15.65;4.55;;;18.00;99.90;;;;;;4957831;28;20035;-77
2021/09/18 07:56:19;;;;;;;8.85;4.53;;;17.90;99.90;;;;;;4957785;28;20034;-77
2021/09/18 07:58:45;;;;;;;11.43;4.50;;;18.00;99.90;;;;;;4957479;28;20597;-78
2021/09/18 08:01:11;;;;;;;;;;;18.10;99.90;;;;;;4957568;28;20019;-77
2021/09/18 08:03:37;;;;;;;10.57;4.38;;;18.20;99.90;;;;;;4957419;29;19906;-77
2021/09/18 08:06:02;;;;;;;;;;;18.10;99.90;;;;;;4957549;28;20019;-78
2021/09/18 08:08:28;;;;;;;7.50;3.50;;;18.00;99.90;;;;;;4957748;28;19913;-77
2021/09/18 08:10:54;;;;;;;;;;;18.10;99.90;;;;;;4958173;29;20492;-78
2021/09/18 08:13:19;;;;;;;9.00;3.90;;;18.10;99.90;;;;;;4957150;29;19917;-78
2021/09/18 08:15:45;;;;;;;;;;;18.00;99.90;;;;;;4940332;29;20496;-77
2021/09/18 08:18:11;;;;;;;8.98;4.35;;;17.90;99.90;;;;;;4940050;29;20465;-77
2021/09/18 08:20:36;;;;;;;;;;;17.90;99.90;;;;;;4957234;28;20484;-77
2021/09/18 08:23:02;;;;;;;10.60;4.40;;;17.90;99.90;;;;;;4957307;28;19910;-78
2021/09/18 08:25:28;;;;;;;;;;;18.00;99.90;;;;;;4940759;29;20023;-77
2021/09/18 08:27:54;;;;;;;10.35;3.55;;;18.20;99.90;;;;;;4940446;29;19913;-77
2021/09/18 08:30:20;;;;;;;8.60;3.92;;;18.50;99.90;;;;;;4972366;28;20376;-77
2021/09/18 08:32:45;;;;;;;8.23;3.50;;;18.80;99.90;;;;;;4976419;28;20027;-77
2021/09/18 08:35:12;;;;;;;;;;;19.20;99.90;;;;;;4976890;28;20046;-77
2021/09/18 08:37:38;;;;;;;8.68;3.83;;;19.30;99.90;;;;;;4976609;28;19906;-77
2021/09/18 08:40:05;;;;;;;8.57;3.97;;;19.20;99.90;;;;;;4975986;28;20379;-77
2021/09/18 08:42:31;;;;;;;9.50;3.88;;;19.10;99.90;;;;;;4976352;28;20030;-77
2021/09/18 08:44:57;;;;;;;9.38;4.00;;;19.00;99.90;;;;;;4976731;28;20029;-77
2021/09/18 08:47:24;;;;;;;7.90;3.50;;;18.90;99.90;;;;;;4976337;28;20105;-77
2021/09/18 08:49:51;;;;;;;8.23;4.10;;;18.90;99.90;;;;;;4965605;28;20027;-77
2021/09/18 08:52:17;;;;;;;8.80;3.60;;;18.70;99.90;;;;;;4939378;29;20424;-77
2021/09/18 08:54:43;;;;;;;8.68;3.70;;;18.70;99.90;;;;;;4939420;29;20487;-77
2021/09/18 08:57:12;;;;;;;8.30;3.67;;;18.90;99.90;;;;;;4956505;28;20050;-77
2021/09/18 08:59:38;;;;;;;11.60;3.78;;;19.20;99.90;;;;;;4956552;28;20015;-77
2021/09/18 09:02:30;;;;;;;8.77;3.50;;;19.40;99.90;;;;;;4956980;28;20027;-77
2021/09/18 09:05:05;;;;;;;7.05;3.53;;;19.60;99.90;;;;;;4956725;29;20054;-77
2021/09/18 09:07:31;;;;;;;6.55;3.22;;;19.80;99.90;;;;;;4956628;28;20023;-77
2021/09/18 09:10:02;;;;;;;8.80;3.80;;;20.00;99.90;;;;;;4950691;28;20130;-78
2021/09/18 09:12:38;;;;;;;9.07;3.70;;;20.50;99.90;;;;;;4975854;28;20057;-78
2021/09/18 09:15:08;;;;;;;10.80;4.00;;;20.40;99.90;;;;;;4975878;28;20023;-77
2021/09/18 09:17:40;;;;;;;9.60;3.97;;;20.30;99.90;;;;;;4975630;28;20054;-78
2021/09/18 09:20:06;;;;;;;9.60;3.90;;;20.30;99.90;;;;;;4975204;28;20467;-77
2021/09/18 09:22:44;;;;;;;12.10;4.28;;;20.00;99.90;;;;;;4975752;28;20090;-78
2021/09/18 09:25:30;;;;;;;8.73;3.88;;;20.00;99.90;;;;;;4975955;28;20030;-77
2021/09/18 09:27:58;;;;;;;8.52;4.18;;;20.00;99.90;;;;;;4975768;28;20031;-77
2021/09/18 09:30:35;;;;;;;9.82;3.90;;;20.00;99.90;;;;;;4975296;28;20109;-77
2021/09/18 09:33:09;;;;;;;11.27;4.07;;;20.40;99.90;;;;;;4957877;28;20031;-77
2021/09/18 09:35:38;;;;;;;8.75;3.83;;;20.80;99.90;;;;;;4957521;28;20023;-78
2021/09/18 09:38:06;;;;;;;9.00;4.00;;;21.00;99.90;;;;;;4975272;28;20400;-78
2021/09/18 09:40:33;;;;;;;11.10;4.35;;;20.70;99.90;;;;;;4957160;28;20109;-78
2021/09/18 09:42:59;;;;;;;11.00;4.15;;;20.50;99.90;;;;;;4975279;28;20023;-78
2021/09/18 09:45:25;;;;;;;8.55;3.58;;;20.50;99.90;;;;;;4975563;28;20050;-78
2021/09/18 09:48:05;;;;;;;12.75;4.30;;;21.20;99.90;;;;;;4975296;28;20034;-78
2021/09/18 09:50:31;;;;;;;9.13;4.00;;;21.30;99.90;;;;;;4960048;28;20019;-78
2021/09/18 09:52:58;;;;;;;9.77;3.92;;;21.70;99.90;;;;;;4956019;29;20031;-78
2021/09/18 09:55:25;;;;;;;7.53;3.30;;;22.60;99.90;;;;;;4938773;29;20491;-78
2021/09/18 09:58:02;;;;;;;7.90;3.45;;;22.70;99.90;;;;;;4935092;29;20051;-78
2021/09/18 10:00:53;;;;;;;11.55;3.60;;;22.80;99.90;;;;;;4934443;29;20024;-78
2021/09/18 10:03:24;;;;;;;8.48;3.28;;;23.30;99.90;;;;;;4936657;29;20547;-78
2021/09/18 10:05:52;;;;;;;6.82;3.10;;;25.60;99.90;;;;;;4936622;29;20134;-79
2021/09/18 10:08:23;;;;;;;8.05;2.47;;;29.00;99.10;;;;;;4936755;29;20027;-80
2021/09/18 10:10:50;;;;;;;7.93;2.50;;;28.70;96.50;;;;;;4952788;29;20083;-79
2021/09/18 10:13:21;;;;;;;8.48;2.80;;;28.60;95.30;;;;;;4954575;29;20420;-79
2021/09/18 10:15:50;;;;;;;8.52;2.70;;;27.00;96.50;;;;;;4955824;28;20026;-79
2021/09/18 10:18:16;;;;;;;6.28;2.50;;;26.10;98.70;;;;;;4954282;29;20411;-79
2021/09/18 10:23:23;;;;;;;6.85;2.47;;;29.00;94.10;;;;;;4936158;29;20028;-79
2021/09/18 10:25:53;;;;;;;6.85;2.50;;;29.60;95.60;;;;;;4936195;29;20019;-80
2021/09/18 10:28:22;;;;;;;4.03;2.30;;;34.10;84.60;;;;;;4936287;29;20036;-80
2021/09/18 10:30:52;;;;;;;5.85;2.55;;;34.60;81.20;;;;;;4936044;29;20028;-80
2021/09/18 10:33:39;;;;;;;6.53;2.90;;;36.00;72.20;;;;;;4934683;29;20103;-82
2021/09/18 10:36:12;;;;;;;7.93;3.00;;;37.00;66.20;;;;;;4936098;29;20103;-80
2021/09/18 10:38:47;;;;;;;6.13;2.97;;;38.00;64.10;;;;;;4935979;29;20026;-80
2021/09/18 10:41:24;;;;;;;8.48;2.45;;;38.40;61.60;;;;;;4934343;29;20039;-80
2021/09/18 10:43:52;;;;;;;13.52;2.70;;;36.20;59.60;;;;;;4935976;29;20024;-80
2021/09/18 10:46:37;;;;;;;7.50;2.47;;;32.90;68.40;;;;;;4935861;29;20032;-80
2021/09/18 10:49:03;;;;;;;6.78;2.10;;;31.90;72.70;;;;;;4934597;29;20436;-79
2021/09/18 10:51:40;;;;;;;5.43;1.80;;;31.50;73.20;;;;;;4934020;29;20024;-79
2021/09/18 10:54:14;;;;;;;7.68;1.92;;;29.30;76.80;;;;;;4934325;29;20106;-79
2021/09/18 10:56:56;;;;;;;6.63;2.00;;;27.70;85.10;;;;;;4934738;29;20123;-79
2021/09/18 10:59:42;;;;;;;6.90;1.85;;;26.60;91.20;;;;;;4915987;29;20071;-79
2021/09/18 11:02:32;;;;;;;5.30;1.95;;;26.60;91.90;;;;;;4916258;29;20024;-79
2021/09/18 11:05:05;;;;;;;4.50;1.70;;;26.50;92.00;;;;;;4916289;29;20040;-79
2021/09/18 11:07:40;;;;;;;6.43;2.00;;;25.30;93.90;;;;;;4916623;29;20024;-78
2021/09/18 11:10:11;;;;;;;6.18;1.95;;;24.20;97.20;;;;;;4915540;29;20126;-79
2021/09/18 11:12:37;;;;;;;7.35;1.95;;;23.60;99.40;;;;;;4918623;29;20517;-78
2021/09/18 11:15:06;;;;;;;4.05;1.90;;;23.40;99.90;;;;;;4920243;29;20036;-79
2021/09/18 11:17:34;;;;;;;5.65;2.05;;;23.40;99.90;;;;;;4918921;29;20444;-79
2021/09/18 11:20:18;;;;;;;6.85;2.08;;;23.70;99.90;;;;;;4920157;29;20077;-78
2021/09/18 11:22:46;;;;;;;5.63;1.90;;;23.80;99.90;;;;;;4920159;29;20027;-78
2021/09/18 11:25:37;;;;;;;5.13;2.00;;;24.00;99.90;;;;;;4920131;29;20032;-79
2021/09/18 11:28:07;;;;;;;6.30;2.25;;;25.00;99.90;;;;;;4918569;29;20067;-79
2021/09/18 11:30:54;;;;;;;7.18;2.80;;;25.00;99.90;;;;;;4920190;29;20059;-79
2021/09/18 11:33:22;;;;;;;7.97;3.20;;;25.70;97.60;;;;;;4919915;29;20103;-79
2021/09/18 11:35:55;;;;;;;10.80;3.45;;;26.50;97.20;;;;;;4919214;29;20083;-79
2021/09/18 11:38:25;;;;;;;10.40;4.78;;;26.30;95.70;;;;;;4919927;29;20024;-79
2021/09/18 11:41:01;;;;;;;11.13;5.40;;;26.50;94.80;;;;;;4918409;29;20067;-79
2021/09/18 11:43:27;;;;;;;7.03;1.60;;;26.60;95.10;;;;;;4919851;29;20079;-79
2021/09/18 11:45:53;;;;;;;6.53;1.67;;;26.40;93.70;;;;;;4918492;29;20032;-79
2021/09/18 11:48:22;;;;;;;4.47;1.30;;;27.30;93.30;;;;;;4918419;29;20164;-79
2021/09/18 11:50:48;;;;;;;4.28;1.60;;;27.40;93.10;;;;;;4919656;29;20035;-79
2021/09/18 11:53:14;;;;;;;3.22;1.60;;;30.10;87.90;;;;;;4919542;29;20027;-80
2021/09/18 11:55:46;;;;;;;3.97;1.90;;;34.00;73.80;;;;;;4919761;29;20032;-80
2021/09/18 11:58:15;;;;;;;2.75;1.63;;;36.90;62.70;;;;;;4942899;29;20062;-81
2021/09/18 12:00:51;;;;;;;4.20;1.77;;;38.40;56.90;;;;;;4957841;28;20115;-80
2021/09/18 12:03:34;;;;;;;3.88;1.30;;;37.40;55.40;;;;;;4957647;29;20054;-80
2021/09/18 12:06:06;;;;;;;3.22;1.40;;;33.10;60.30;;;;;;4940075;29;20487;-80
2021/09/18 12:08:34;;;;;;;2.97;1.50;;;33.70;63.50;;;;;;4957678;29;20031;-80
2021/09/18 12:11:09;;;;;;;3.70;1.50;;;35.40;59.40;;;;;;4957590;28;20078;-80
2021/09/18 12:13:41;;;;;;;2.60;1.05;;;35.50;57.10;;;;;;4957433;29;20066;-80
2021/09/18 12:16:08;;;;;;;3.78;1.08;;;30.30;65.00;;;;;;4957571;29;20027;-79
2021/09/18 12:18:45;;;;;;;1.85;1.00;;;29.70;65.60;;;;;;4957289;28;20038;-79
2021/09/18 12:21:23;;;;;;;3.20;1.15;;;28.60;70.70;;;;;;4957447;29;20027;-79
2021/09/18 12:23:57;;;;;;;3.30;1.10;;;28.20;73.00;;;;;;4956601;28;20027;-79
2021/09/18 12:26:26;;;;;;;1.80;1.00;;;27.30;75.30;;;;;;4957270;29;20424;-79
2021/09/18 12:29:14;;;;;;;3.15;1.10;;;26.40;78.20;;;;;;4957178;29;20031;-79
2021/09/18 12:31:42;;;;;;;3.28;1.17;;;27.10;76.80;;;;;;4956994;28;20419;-79
2021/09/18 12:34:11;;;;;;;3.63;1.30;;;27.10;77.00;;;;;;4957023;28;20024;-79
2021/09/18 12:36:37;;;;;;;3.95;1.10;;;25.90;80.90;;;;;;4956926;28;20035;-79
2021/09/18 12:39:06;;;;;;;1.85;1.10;;;25.90;83.70;;;;;;4939706;29;20578;-79
2021/09/18 12:41:33;;;;;;;3.80;1.10;;;25.40;87.10;;;;;;4956843;29;20027;-79
2021/09/18 12:44:05;;;;;;;2.45;1.10;;;24.80;89.90;;;;;;4956803;28;20108;-79
2021/09/18 12:46:42;;;;;;;2.85;1.20;;;25.10;90.80;;;;;;4957109;29;20039;-79
2021/09/18 12:49:09;;;;;;;1.73;1.10;;;25.60;89.70;;;;;;4956848;29;20024;-79
2021/09/18 12:51:38;;;;;;;6.05;1.40;;;25.50;89.00;;;;;;4956672;29;20032;-79
2021/09/18 12:54:05;;;;;;;3.20;1.10;;;26.00;87.20;;;;;;4956599;29;20392;-79
2021/09/18 12:56:38;;;;;;;1.83;1.02;;;26.50;85.40;;;;;;4939415;29;20027;-79
2021/09/18 12:59:04;;;;;;;1.83;1.02;;;26.70;84.40;;;;;;4956070;28;20170;-79
2021/09/18 13:01:40;;;;;;;4.45;1.10;;;25.90;83.90;;;;;;4956527;28;20473;-79
2021/09/18 13:04:11;;;;;;;1.63;1.05;;;26.60;83.70;;;;;;4939221;29;20024;-79
2021/09/18 13:06:45;;;;;;;3.78;1.20;;;27.30;81.30;;;;;;4956472;28;20051;-79
2021/09/18 13:09:11;;;;;;;2.57;1.20;;;27.70;81.70;;;;;;4938940;29;20019;-79
2021/09/18 13:11:59;;;;;;;1.70;1.10;;;28.40;81.20;;;;;;4956304;29;20020;-79